Terminal Aerodrome Forecast
Issued by NWS

Home | Current Version | Previous Version | Text Only | Print | Product List | Glossary On
Versions: 1 2 3 4 5 6 7 8 9 10 11 12
000
FTUS44 KBMX 300532
TAFMGM
TAF
KMGM 300532Z 3006/3106 19006KT P6SM SKC
     FM300900 20006KT P6SM OVC020
     FM301330 22006KT 6SM -SHRA OVC015
     FM301800 29010G16KT P6SM BKN050
     FM302200 30008KT P6SM SCT250=

USA.gov is the U.S. government's official web portal to all federal, state and local government web resources and services.